Time;durP1;ratioP1;P1;durP2;ratioP2;P2;SDS_P1;SDS_P2;PMS_P1;PMS_P2;Temp;Humidity;BMP_temperature;BMP_pressure;BME280_temperature;BME280_humidity;BME280_pressure;Samples;Min_cycle;Max_cycle;Signal;HPM_P1;HPM_P2
2021/12/08 00:01:00;;;;;;;8.23;2.37;;;3.10;99.90;;;;;;5006323;28;20433;-72
2021/12/08 00:03:28;;;;;;;3.20;1.63;;;3.10;99.90;;;;;;4993208;28;20462;-72
2021/12/08 00:05:54;;;;;;;2.10;2.00;;;3.00;99.90;;;;;;4997017;28;20887;-72
2021/12/08 00:08:21;;;;;;;3.57;2.07;;;3.00;99.90;;;;;;5003902;28;20425;-71
2021/12/08 00:13:01;;;;;;;3.50;1.80;;;3.00;99.90;;;;;;4992287;28;20797;-72
2021/12/08 00:13:36;;;;;;;2.33;1.87;;;3.00;99.90;;;;;;4994858;28;20457;-71
2021/12/08 00:16:07;;;;;;;2.87;2.27;;;3.00;99.90;;;;;;5005904;28;20450;-71
2021/12/08 00:18:34;;;;;;;3.80;2.23;;;3.00;99.90;;;;;;4992674;28;20179;-72
2021/12/08 00:21:03;;;;;;;13.80;3.13;;;3.00;99.90;;;;;;4999152;28;20464;-71
2021/12/08 00:23:29;;;;;;;5.70;2.53;;;2.90;99.90;;;;;;5004912;28;20469;-71
2021/12/08 00:25:55;;;;;;;5.77;2.43;;;2.90;99.90;;;;;;5001297;28;20463;-72
2021/12/08 00:28:22;;;;;;;6.77;2.50;;;2.80;99.90;;;;;;4987198;28;20442;-72
2021/12/08 00:30:50;;;;;;;3.40;2.43;;;2.80;99.90;;;;;;4995531;28;20782;-71
2021/12/08 00:33:18;;;;;;;2.57;2.30;;;2.80;99.90;;;;;;4989244;28;20430;-69
2021/12/08 00:35:47;;;;;;;6.20;2.70;;;2.90;99.90;;;;;;4996424;28;20437;-72
2021/12/08 00:38:14;;;;;;;8.27;2.33;;;2.90;99.90;;;;;;4995120;28;20430;-72
2021/12/08 00:40:40;;;;;;;6.23;2.60;;;2.90;99.90;;;;;;5004689;28;20965;-71
2021/12/08 00:43:06;;;;;;;2.90;2.10;;;2.90;99.90;;;;;;5006930;28;20545;-71
2021/12/08 00:45:34;;;;;;;4.27;2.43;;;2.90;99.90;;;;;;5006420;28;20437;-71
2021/12/08 00:48:00;;;;;;;6.37;2.63;;;2.90;99.90;;;;;;4997467;28;20525;-71
2021/12/08 00:50:30;;;;;;;5.20;3.00;;;2.80;99.90;;;;;;5010926;28;20520;-71
2021/12/08 00:52:58;;;;;;;4.13;2.53;;;2.70;99.90;;;;;;5000383;28;20429;-71
2021/12/08 00:55:25;;;;;;;2.90;2.27;;;2.50;99.90;;;;;;4993199;28;20936;-71
2021/12/08 00:57:51;;;;;;;2.63;1.83;;;2.50;99.90;;;;;;4992341;28;20458;-72
2021/12/08 01:00:22;;;;;;;3.13;2.67;;;2.40;99.90;;;;;;4992731;28;20940;-71
2021/12/08 01:02:48;;;;;;;2.80;2.07;;;2.30;99.90;;;;;;4995796;28;20203;-72
2021/12/08 01:05:17;;;;;;;3.20;2.10;;;2.20;99.90;;;;;;4997469;28;20480;-72
2021/12/08 01:07:44;;;;;;;2.17;2.03;;;2.10;99.90;;;;;;4993707;28;20474;-71
2021/12/08 01:10:15;;;;;;;3.57;2.30;;;2.00;99.90;;;;;;4997335;28;20435;-71
2021/12/08 01:12:40;;;;;;;3.10;2.40;;;2.00;99.90;;;;;;5009353;28;20950;-71
2021/12/08 01:15:06;;;;;;;2.63;2.20;;;1.90;99.90;;;;;;5002263;28;20430;-71
2021/12/08 01:17:33;;;;;;;2.30;1.90;;;1.90;99.90;;;;;;4998226;28;20207;-71
2021/12/08 01:19:59;;;;;;;3.00;2.47;;;1.90;99.90;;;;;;4996870;28;20517;-71
2021/12/08 01:22:24;;;;;;;2.90;2.70;;;1.90;99.90;;;;;;5004520;28;20536;-72
2021/12/08 01:24:50;;;;;;;2.93;1.77;;;1.90;99.90;;;;;;4997376;28;20625;-72
2021/12/08 01:27:16;;;;;;;2.30;2.07;;;1.90;99.90;;;;;;5004514;28;20290;-72
2021/12/08 01:29:41;;;;;;;3.10;2.30;;;1.90;99.90;;;;;;4998173;28;20179;-71
2021/12/08 01:32:07;;;;;;;2.53;2.33;;;1.80;99.90;;;;;;5001822;28;20545;-72
2021/12/08 01:34:33;;;;;;;2.80;2.60;;;1.80;99.90;;;;;;5005581;28;20171;-72
2021/12/08 01:36:59;;;;;;;2.17;2.00;;;1.90;99.90;;;;;;5002862;28;20447;-71
2021/12/08 01:39:24;;;;;;;3.47;3.00;;;1.90;99.90;;;;;;4996726;28;20438;-71
2021/12/08 01:41:52;;;;;;;3.03;2.63;;;1.90;99.90;;;;;;4995054;28;20642;-71
2021/12/08 01:47:03;;;;;;;5.33;3.33;;;1.90;99.90;;;;;;4994691;28;20445;-71
2021/12/08 01:49:28;;;;;;;3.17;2.77;;;1.80;99.90;;;;;;4996465;28;20517;-71
2021/12/08 01:51:54;;;;;;;4.20;3.00;;;1.80;99.90;;;;;;5004358;28;20465;-71
2021/12/08 01:54:19;;;;;;;5.03;2.93;;;1.80;99.90;;;;;;4999788;28;20213;-70
2021/12/08 01:56:45;;;;;;;5.77;3.10;;;1.80;99.90;;;;;;4992793;28;20223;-69
2021/12/08 01:59:11;;;;;;;3.27;2.73;;;1.80;99.90;;;;;;4995780;28;20176;-72
2021/12/08 02:01:40;;;;;;;4.60;2.40;;;1.90;99.90;;;;;;5001950;28;20179;-71
2021/12/08 02:04:06;;;;;;;3.80;3.00;;;1.90;99.90;;;;;;5009336;28;20433;-69
2021/12/08 02:06:38;;;;;;;3.90;3.17;;;1.90;99.90;;;;;;4997553;28;20640;-71
2021/12/08 02:09:09;;;;;;;4.97;3.13;;;1.80;99.90;;;;;;4996970;28;20442;-71
2021/12/08 02:11:36;;;;;;;5.50;2.77;;;1.90;99.90;;;;;;5005233;28;20524;-71
2021/12/08 02:14:02;;;;;;;3.70;3.40;;;1.80;99.90;;;;;;5014406;28;20433;-71
2021/12/08 02:16:29;;;;;;;3.77;3.47;;;1.80;99.90;;;;;;4996144;28;20450;-71
2021/12/08 02:18:55;;;;;;;3.10;2.63;;;1.80;99.90;;;;;;5007577;28;20484;-71
2021/12/08 02:21:28;;;;;;;4.13;3.20;;;1.90;99.90;;;;;;5006370;28;20429;-71
2021/12/08 02:23:57;;;;;;;5.57;3.00;;;1.90;99.90;;;;;;5014172;28;20217;-71
2021/12/08 02:26:23;;;;;;;4.33;2.87;;;1.90;99.90;;;;;;4996882;28;20496;-71
2021/12/08 02:28:50;;;;;;;3.43;2.60;;;1.90;99.90;;;;;;5009768;28;20434;-71
2021/12/08 02:31:25;;;;;;;5.00;3.33;;;2.00;99.90;;;;;;5002444;28;20456;-71
2021/12/08 02:47:52;;;;;;;5.93;2.87;;;2.20;99.90;;;;;;5013537;28;20970;-70
2021/12/08 02:50:19;;;;;;;6.40;2.83;;;2.20;99.90;;;;;;5007064;28;20434;-71
2021/12/08 02:52:45;;;;;;;3.10;2.80;;;2.30;99.90;;;;;;4981035;28;20851;-71
2021/12/08 02:55:11;;;;;;;4.60;3.30;;;2.30;99.90;;;;;;4994198;28;20525;-71
2021/12/08 02:57:36;;;;;;;5.83;2.57;;;2.40;99.90;;;;;;5004656;28;20575;-71
2021/12/08 03:00:06;;;;;;;4.57;3.73;;;2.50;99.90;;;;;;4995267;28;20175;-71
2021/12/08 03:02:32;;;;;;;4.40;3.67;;;2.40;99.90;;;;;;4999636;28;20198;-71
2021/12/08 03:04:57;;;;;;;4.87;3.33;;;2.40;99.90;;;;;;4999800;28;20434;-71
2021/12/08 03:07:23;;;;;;;4.10;3.23;;;2.40;99.90;;;;;;4993825;28;20303;-69
2021/12/08 03:09:49;;;;;;;4.17;3.57;;;2.40;99.90;;;;;;5000484;28;20214;-71
2021/12/08 03:12:14;;;;;;;5.83;3.30;;;2.30;99.90;;;;;;4997058;28;20183;-71
2021/12/08 03:14:40;;;;;;;6.47;3.63;;;2.20;99.90;;;;;;4994074;28;20183;-71
2021/12/08 03:17:08;;;;;;;3.50;3.20;;;2.20;99.90;;;;;;4998934;28;20548;-70
2021/12/08 03:19:33;;;;;;;4.23;3.63;;;2.20;99.90;;;;;;5003462;28;20446;-71
2021/12/08 03:21:59;;;;;;;5.63;3.30;;;2.20;99.90;;;;;;5003651;28;20472;-71
2021/12/08 03:24:33;;;;;;;5.43;3.90;;;2.20;99.90;;;;;;4993649;28;20180;-71
2021/12/08 03:27:13;;;;;;;4.27;2.97;;;2.20;99.90;;;;;;4994189;28;20709;-71
2021/12/08 03:29:52;;;;;;;3.53;3.23;;;2.20;99.90;;;;;;4995522;28;20442;-69
2021/12/08 03:32:28;;;;;;;5.17;3.70;;;2.30;99.90;;;;;;4992890;28;20525;-71
2021/12/08 03:34:54;;;;;;;4.73;3.67;;;2.30;99.90;;;;;;4994162;28;20434;-71
2021/12/08 03:37:31;;;;;;;4.07;3.30;;;2.30;99.90;;;;;;5009412;28;20826;-70
2021/12/08 03:39:58;;;;;;;5.33;3.37;;;2.40;99.90;;;;;;4998441;28;20179;-71
2021/12/08 03:42:28;;;;;;;5.40;3.43;;;2.50;99.90;;;;;;5003630;28;20465;-70
2021/12/08 03:44:57;;;;;;;4.07;2.90;;;2.50;99.90;;;;;;4993070;28;20441;-68
2021/12/08 03:47:29;;;;;;;10.53;3.10;;;2.60;99.90;;;;;;5009523;28;20805;-71
2021/12/08 03:49:59;;;;;;;3.90;3.60;;;2.60;99.90;;;;;;5006247;28;20434;-70
2021/12/08 03:52:25;;;;;;;2.73;2.50;;;2.70;99.90;;;;;;5003445;28;20761;-71
2021/12/08 03:54:50;;;;;;;4.07;3.17;;;2.70;99.90;;;;;;4995131;28;20873;-71
2021/12/08 03:57:16;;;;;;;9.00;4.30;;;2.70;99.90;;;;;;4993192;28;20493;-71
2021/12/08 03:59:41;;;;;;;9.23;4.00;;;2.70;99.90;;;;;;5000079;28;20191;-71
2021/12/08 04:02:07;;;;;;;6.43;4.67;;;2.70;99.90;;;;;;4993255;28;20593;-71
2021/12/08 04:04:42;;;;;;;4.47;3.87;;;2.70;99.90;;;;;;4992195;28;20187;-71
2021/12/08 04:07:09;;;;;;;5.97;4.00;;;2.60;99.90;;;;;;5006328;28;20198;-71
2021/12/08 04:09:43;;;;;;;4.37;3.97;;;2.50;99.90;;;;;;5006419;28;20556;-70
2021/12/08 04:12:11;;;;;;;4.80;4.40;;;2.40;99.90;;;;;;5008316;28;20517;-70
2021/12/08 04:14:43;;;;;;;5.80;4.50;;;2.40;99.90;;;;;;4993246;28;20442;-71
2021/12/08 04:17:18;;;;;;;4.77;3.90;;;2.40;99.90;;;;;;5001716;28;20457;-71
2021/12/08 04:19:46;;;;;;;4.73;4.33;;;2.40;99.90;;;;;;5007039;28;20442;-70
2021/12/08 04:22:20;;;;;;;8.80;5.50;;;2.40;99.90;;;;;;4992386;28;20462;-71
2021/12/08 04:24:47;;;;;;;9.37;4.93;;;2.40;99.90;;;;;;4989339;28;20796;-70
2021/12/08 04:27:17;;;;;;;6.30;5.70;;;2.50;99.90;;;;;;4995215;28;20473;-71
2021/12/08 04:29:45;;;;;;;5.90;5.20;;;2.50;99.90;;;;;;4996935;28;20441;-71
2021/12/08 04:32:14;;;;;;;5.87;5.37;;;2.50;99.90;;;;;;4996674;28;20546;-70
2021/12/08 04:34:42;;;;;;;5.20;4.63;;;2.50;99.90;;;;;;5006456;28;20785;-71
2021/12/08 04:37:18;;;;;;;7.17;4.30;;;2.50;99.90;;;;;;4998566;28;20457;-71
2021/12/08 04:42:56;;;;;;;9.17;6.47;;;2.50;99.90;;;;;;4963093;28;20461;-70
2021/12/08 04:45:32;;;;;;;9.33;6.10;;;2.60;99.90;;;;;;5002022;28;20437;-71
2021/12/08 04:48:21;;;;;;;8.20;6.97;;;2.60;99.90;;;;;;5004365;28;20465;-71
2021/12/08 05:07:30;;;;;;;9.37;5.83;;;2.80;99.90;;;;;;4989128;28;20469;-72
2021/12/08 05:09:58;;;;;;;8.53;7.13;;;2.80;99.90;;;;;;5003104;28;20508;-71
2021/12/08 05:12:29;;;;;;;9.47;7.17;;;2.80;99.90;;;;;;5010904;28;20429;-71
2021/12/08 05:14:56;;;;;;;13.27;7.47;;;2.80;99.90;;;;;;4991962;28;20426;-71
2021/12/08 05:17:30;;;;;;;10.00;7.73;;;2.80;99.90;;;;;;5002847;28;20507;-70
2021/12/08 05:19:59;;;;;;;9.60;7.40;;;2.80;99.90;;;;;;5001628;28;20463;-71
2021/12/08 05:22:39;;;;;;;10.67;7.53;;;2.80;99.90;;;;;;4992764;28;20952;-71
2021/12/08 05:25:09;;;;;;;10.00;6.87;;;2.80;99.90;;;;;;4999544;28;20426;-71
2021/12/08 05:27:44;;;;;;;9.57;6.60;;;2.90;99.90;;;;;;5000160;28;21210;-71
2021/12/08 05:30:36;;;;;;;8.83;7.50;;;2.90;99.90;;;;;;5013883;23;20837;-66
2021/12/08 05:33:03;;;;;;;12.77;8.17;;;2.90;99.90;;;;;;4986291;28;20796;-66
2021/12/08 05:35:31;;;;;;;11.47;8.33;;;3.00;99.90;;;;;;4991991;28;20816;-66
2021/12/08 05:37:57;;;;;;;10.83;8.63;;;3.00;99.90;;;;;;4986556;28;20855;-66
2021/12/08 05:40:32;;;;;;;12.23;8.77;;;3.10;99.90;;;;;;4999173;28;20546;-66
2021/12/08 05:42:57;;;;;;;12.10;8.93;;;3.10;99.90;;;;;;4977695;28;20512;-66
2021/12/08 05:45:23;;;;;;;15.63;9.00;;;3.10;99.90;;;;;;4991321;28;20462;-66
2021/12/08 05:47:51;;;;;;;13.43;9.10;;;3.10;99.90;;;;;;4979578;28;20207;-66
2021/12/08 05:50:23;;;;;;;11.50;9.40;;;3.20;99.90;;;;;;4980436;28;20200;-66
2021/12/08 05:52:51;;;;;;;11.40;9.17;;;3.20;99.90;;;;;;4976596;28;20439;-66
2021/12/08 05:55:17;;;;;;;13.07;10.10;;;3.20;99.90;;;;;;4981775;28;20438;-66
2021/12/08 05:57:43;;;;;;;13.97;9.80;;;3.10;99.90;;;;;;4984984;28;20450;-66
2021/12/08 06:00:18;;;;;;;14.57;10.10;;;3.20;99.90;;;;;;4983491;28;20250;-66
2021/12/08 06:02:44;;;;;;;12.43;9.63;;;3.20;99.90;;;;;;4978896;28;20461;-66
2021/12/08 06:05:11;;;;;;;14.50;11.20;;;3.30;99.90;;;;;;4984191;28;20457;-66
2021/12/08 06:07:37;;;;;;;17.67;11.20;;;3.30;99.90;;;;;;4978578;28;20242;-66
2021/12/08 06:10:09;;;;;;;14.20;9.97;;;3.30;99.90;;;;;;4983079;28;20868;-66
2021/12/08 06:12:34;;;;;;;16.63;10.87;;;3.30;99.90;;;;;;4981343;28;20844;-66
2021/12/08 06:15:00;;;;;;;17.63;10.00;;;3.30;99.90;;;;;;4982081;28;20443;-66
2021/12/08 06:17:29;;;;;;;12.97;10.23;;;3.30;99.90;;;;;;4984470;28;20181;-66
2021/12/08 06:19:56;;;;;;;12.70;11.40;;;3.30;99.90;;;;;;4981658;28;20179;-66
2021/12/08 06:22:23;;;;;;;14.07;9.70;;;3.30;99.90;;;;;;4983864;28;20475;-66
2021/12/08 06:24:49;;;;;;;14.83;10.97;;;3.30;99.90;;;;;;4993020;28;20840;-66
2021/12/08 06:27:15;;;;;;;16.77;11.30;;;3.30;99.90;;;;;;4981890;28;20446;-66
2021/12/08 06:29:42;;;;;;;11.30;9.43;;;3.30;99.90;;;;;;4988243;28;20443;-66
2021/12/08 06:32:10;;;;;;;13.57;9.70;;;3.30;99.90;;;;;;4976372;28;20354;-66
2021/12/08 06:34:37;;;;;;;22.03;11.20;;;3.30;99.90;;;;;;4990066;28;20465;-66
2021/12/08 06:37:08;;;;;;;13.63;10.77;;;3.30;99.90;;;;;;4988354;28;20526;-66
2021/12/08 06:39:39;;;;;;;13.50;10.30;;;3.30;99.90;;;;;;4975856;28;20445;-66
2021/12/08 06:42:08;;;;;;;16.40;10.23;;;3.30;99.90;;;;;;4987446;28;20558;-66
2021/12/08 06:44:41;;;;;;;14.13;10.10;;;3.30;99.90;;;;;;4979419;28;20936;-66
2021/12/08 06:47:11;;;;;;;15.13;11.70;;;3.40;99.90;;;;;;4993742;28;20951;-66
2021/12/08 06:49:37;;;;;;;15.93;12.70;;;3.40;99.90;;;;;;4977138;28;20887;-66
2021/12/08 06:52:10;;;;;;;16.60;11.30;;;3.40;99.90;;;;;;4985935;28;20487;-66
2021/12/08 06:54:40;;;;;;;15.30;11.40;;;3.30;99.90;;;;;;4980086;28;20526;-66
2021/12/08 06:57:10;;;;;;;18.00;12.17;;;3.30;99.90;;;;;;4975827;28;20778;-66
2021/12/08 06:59:50;;;;;;;15.20;11.07;;;3.30;99.90;;;;;;4983073;28;20536;-66
2021/12/08 07:02:33;;;;;;;16.30;12.00;;;3.30;99.90;;;;;;4992158;28;20493;-66
2021/12/08 07:07:32;;;;;;;15.97;11.90;;;3.30;99.90;;;;;;4978466;28;20924;-66
2021/12/08 07:10:06;;;;;;;14.40;10.67;;;3.40;99.90;;;;;;4974053;28;20490;-66
2021/12/08 07:12:44;;;;;;;15.87;12.00;;;3.40;99.90;;;;;;4979566;28;20192;-66
2021/12/08 07:15:20;;;;;;;14.37;11.20;;;3.40;99.90;;;;;;4984489;28;20430;-66
2021/12/08 07:17:53;;;;;;;17.17;10.00;;;3.40;99.90;;;;;;4981373;28;20464;-66
2021/12/08 07:23:24;;;;;;;18.00;12.47;;;3.40;99.90;;;;;;4988004;28;20501;-66
2021/12/08 07:25:54;;;;;;;17.40;12.93;;;3.40;99.90;;;;;;4981423;28;20514;-65
2021/12/08 07:28:23;;;;;;;13.30;9.87;;;3.40;99.90;;;;;;4976152;28;20952;-66
2021/12/08 07:31:08;;;;;;;19.63;11.30;;;3.40;99.90;;;;;;4980297;28;20501;-66
2021/12/08 07:33:33;;;;;;;14.97;10.83;;;3.40;99.90;;;;;;4984276;28;21034;-66
2021/12/08 07:36:04;;;;;;;16.30;11.83;;;3.40;99.90;;;;;;4988044;28;20517;-66
2021/12/08 07:38:30;;;;;;;18.97;12.00;;;3.50;99.90;;;;;;4991683;28;20189;-66
2021/12/08 07:41:06;;;;;;;16.33;10.60;;;3.50;99.90;;;;;;4986153;28;20912;-66
2021/12/08 07:43:34;;;;;;;12.00;10.80;;;3.50;99.90;;;;;;4991812;28;20469;-66
2021/12/08 07:46:06;;;;;;;13.20;10.00;;;3.50;99.90;;;;;;4986697;28;20514;-66
2021/12/08 07:48:49;;;;;;;21.77;11.83;;;3.50;99.90;;;;;;4989957;28;20999;-66
2021/12/08 07:51:32;;;;;;;14.30;10.73;;;3.50;99.90;;;;;;4981100;28;20449;-66
2021/12/08 07:53:59;;;;;;;16.23;10.67;;;3.50;99.90;;;;;;4979483;28;20448;-66
2021/12/08 07:56:27;;;;;;;14.57;10.20;;;3.50;99.90;;;;;;4980456;28;20443;-65
2021/12/08 07:59:02;;;;;;;15.37;10.90;;;3.50;99.90;;;;;;4978504;28;20445;-66
2021/12/08 08:01:33;;;;;;;18.03;10.77;;;3.50;99.90;;;;;;4986918;28;20561;-66
2021/12/08 08:04:00;;;;;;;13.37;10.83;;;3.50;99.90;;;;;;4963486;28;20474;-66
2021/12/08 08:06:30;;;;;;;16.23;11.67;;;3.50;99.90;;;;;;4950882;28;21394;-65
2021/12/08 08:08:56;;;;;;;16.10;10.97;;;3.50;99.90;;;;;;4979742;28;20523;-66
2021/12/08 08:11:30;;;;;;;15.40;10.93;;;3.50;99.90;;;;;;4979138;28;20506;-67
2021/12/08 08:13:56;;;;;;;13.57;11.37;;;3.50;99.90;;;;;;4983910;28;20438;-67
2021/12/08 08:16:26;;;;;;;13.30;10.80;;;3.50;99.90;;;;;;4980143;28;20447;-67
2021/12/08 08:19:01;;;;;;;12.20;9.00;;;3.60;99.90;;;;;;4973300;28;20519;-67
2021/12/08 08:21:30;;;;;;;12.67;9.77;;;3.60;99.90;;;;;;4984188;28;20458;-67
2021/12/08 08:23:58;;;;;;;14.80;10.23;;;3.60;99.90;;;;;;4980096;28;20464;-67
2021/12/08 08:26:24;;;;;;;20.53;10.70;;;3.60;99.90;;;;;;4977207;28;20434;-67
2021/12/08 08:28:52;;;;;;;11.60;9.60;;;3.60;99.90;;;;;;4982020;28;20431;-67
2021/12/08 08:31:48;;;;;;;11.93;9.37;;;3.60;99.90;;;;;;4976729;28;20763;-67
2021/12/08 08:34:13;;;;;;;15.23;10.00;;;3.60;99.90;;;;;;4975112;28;20458;-67
2021/12/08 08:36:44;;;;;;;12.43;10.33;;;3.70;99.90;;;;;;4986307;28;20435;-67
2021/12/08 08:39:23;;;;;;;16.53;11.07;;;3.70;99.90;;;;;;4983348;28;20191;-67
2021/12/08 08:41:52;;;;;;;16.93;10.00;;;3.70;99.90;;;;;;4973599;28;20463;-67
2021/12/08 08:44:34;;;;;;;13.90;8.87;;;3.70;99.90;;;;;;4970629;28;20878;-67
2021/12/08 08:47:07;;;;;;;11.03;8.03;;;3.80;99.90;;;;;;4979474;28;20801;-66
2021/12/08 08:49:34;;;;;;;14.13;9.27;;;3.70;99.90;;;;;;4986510;28;20454;-68
2021/12/08 08:52:08;;;;;;;10.83;8.13;;;3.80;99.90;;;;;;4985619;28;21267;-68
2021/12/08 08:54:38;;;;;;;10.40;7.50;;;3.80;99.90;;;;;;4973296;28;20792;-68
2021/12/08 08:57:06;;;;;;;13.43;8.63;;;3.80;99.90;;;;;;4976648;28;20956;-68
2021/12/08 08:59:40;;;;;;;10.63;8.30;;;3.80;99.90;;;;;;4972682;28;20549;-67
2021/12/08 09:02:09;;;;;;;9.50;8.07;;;3.80;99.90;;;;;;4982741;28;20524;-67
2021/12/08 09:04:46;;;;;;;8.53;7.73;;;3.80;99.90;;;;;;4972668;28;20824;-68
2021/12/08 09:07:21;;;;;;;9.53;8.10;;;3.80;99.90;;;;;;4972233;28;20798;-67
2021/12/08 09:09:47;;;;;;;10.93;9.67;;;3.80;99.90;;;;;;4976185;28;20442;-67
2021/12/08 09:12:36;;;;;;;9.83;8.43;;;3.80;99.90;;;;;;4970682;28;20463;-67
2021/12/08 09:15:28;;;;;;;9.97;8.00;;;3.80;99.90;;;;;;4973116;28;20452;-67
2021/12/08 09:18:19;;;;;;;11.90;9.93;;;3.80;99.90;;;;;;4969907;28;20447;-67
2021/12/08 09:21:16;;;;;;;10.67;8.63;;;3.80;99.90;;;;;;4985644;28;20521;-67
2021/12/08 09:23:58;;;;;;;9.67;8.67;;;3.90;99.90;;;;;;4971020;28;20467;-67
2021/12/08 09:26:26;;;;;;;16.80;8.07;;;3.90;99.90;;;;;;4977921;28;20963;-67
2021/12/08 09:29:00;;;;;;;16.80;11.23;;;3.90;99.90;;;;;;4985659;28;20999;-67
2021/12/08 09:31:34;;;;;;;9.97;8.07;;;3.90;99.90;;;;;;4989700;28;21127;-67
2021/12/08 09:34:06;;;;;;;8.93;7.83;;;3.90;99.90;;;;;;4982432;28;20477;-67
2021/12/08 09:36:39;;;;;;;12.93;11.43;;;3.90;99.90;;;;;;4973902;28;20489;-66
2021/12/08 09:39:13;;;;;;;8.40;7.27;;;3.90;99.90;;;;;;4973569;28;20435;-67
2021/12/08 09:41:49;;;;;;;8.70;7.27;;;3.90;99.90;;;;;;4991127;28;20462;-67
2021/12/08 09:44:22;;;;;;;8.33;6.90;;;3.90;99.90;;;;;;4980542;28;20839;-67
2021/12/08 09:46:51;;;;;;;12.80;8.00;;;3.90;99.90;;;;;;4987172;28;20491;-67
2021/12/08 09:49:19;;;;;;;8.57;6.40;;;4.00;99.90;;;;;;4973183;28;20788;-67
2021/12/08 09:51:47;;;;;;;9.07;6.53;;;4.00;99.90;;;;;;4974623;28;20455;-67
2021/12/08 09:54:13;;;;;;;8.80;7.27;;;4.10;99.90;;;;;;4975289;28;20445;-67
2021/12/08 09:56:40;;;;;;;7.20;6.37;;;4.10;99.90;;;;;;4976009;28;20948;-67
2021/12/08 09:59:09;;;;;;;8.87;7.23;;;4.20;99.90;;;;;;4975162;28;20175;-67
2021/12/08 10:01:38;;;;;;;8.50;7.40;;;4.20;99.90;;;;;;4972461;28;20466;-67
2021/12/08 10:04:03;;;;;;;10.30;8.60;;;4.20;99.90;;;;;;4971668;28;20877;-68
2021/12/08 10:06:29;;;;;;;8.13;6.83;;;4.30;99.90;;;;;;4984569;28;20438;-67
2021/12/08 10:08:57;;;;;;;7.20;6.50;;;4.30;99.90;;;;;;4991548;28;20748;-67
2021/12/08 10:11:25;;;;;;;7.43;6.63;;;4.30;99.90;;;;;;4990126;28;20633;-67
2021/12/08 10:13:50;;;;;;;12.53;9.30;;;4.30;99.90;;;;;;4980249;28;20477;-67
2021/12/08 10:16:16;;;;;;;7.40;6.70;;;4.30;99.90;;;;;;4987048;28;20469;-67
2021/12/08 10:18:44;;;;;;;8.57;7.70;;;4.30;99.90;;;;;;4982009;28;20179;-68
2021/12/08 10:21:11;;;;;;;8.90;7.50;;;4.30;99.90;;;;;;4985846;28;20269;-67
2021/12/08 10:23:40;;;;;;;7.30;6.60;;;4.30;99.90;;;;;;4978236;28;20926;-67
2021/12/08 10:26:24;;;;;;;6.67;5.97;;;4.30;99.90;;;;;;4981132;28;20427;-68
2021/12/08 10:28:54;;;;;;;8.53;7.10;;;4.30;99.90;;;;;;4978450;28;20448;-67
2021/12/08 10:31:28;;;;;;;6.60;5.90;;;4.30;99.90;;;;;;4979260;28;20482;-67
2021/12/08 10:37:00;;;;;;;8.47;7.47;;;4.40;99.90;;;;;;4990187;28;20943;-67
2021/12/08 10:39:45;;;;;;;10.70;7.20;;;4.50;99.90;;;;;;4988061;28;20452;-67
2021/12/08 10:42:19;;;;;;;8.63;6.77;;;4.50;99.90;;;;;;4985130;28;20859;-67
2021/12/08 10:44:50;;;;;;;7.90;7.10;;;4.60;99.90;;;;;;4972023;28;20432;-67
2021/12/08 10:47:19;;;;;;;7.93;7.00;;;4.70;99.90;;;;;;4975295;28;20439;-68
2021/12/08 10:55:01;;;;;;;12.20;6.67;;;4.80;99.90;;;;;;4972172;28;20445;-67
2021/12/08 10:57:31;;;;;;;15.27;10.40;;;4.90;99.90;;;;;;4971851;28;20444;-67
2021/12/08 11:00:03;;;;;;;10.40;8.27;;;5.00;99.90;;;;;;4981909;28;20430;-67
2021/12/08 11:02:49;;;;;;;6.13;5.53;;;5.00;99.90;;;;;;4979942;28;20504;-67
2021/12/08 11:05:24;;;;;;;5.20;4.80;;;5.10;99.90;;;;;;4970455;28;20432;-67
2021/12/08 11:08:23;;;;;;;4.77;4.37;;;5.10;99.90;;;;;;4977666;28;20435;-68
2021/12/08 11:11:07;;;;;;;6.10;5.50;;;5.20;99.90;;;;;;4991945;28;20458;-67
2021/12/08 11:13:54;;;;;;;5.00;4.50;;;5.30;99.90;;;;;;4974232;28;20437;-67
2021/12/08 11:16:29;;;;;;;5.13;4.53;;;5.30;99.90;;;;;;4980490;28;20861;-66
2021/12/08 11:19:03;;;;;;;5.20;4.70;;;5.40;99.90;;;;;;4982874;28;20517;-66
2021/12/08 11:21:36;;;;;;;8.20;5.63;;;5.40;99.90;;;;;;4980918;28;20537;-67
2021/12/08 11:24:05;;;;;;;5.90;5.30;;;5.40;99.90;;;;;;4974437;28;20467;-66
2021/12/08 11:26:36;;;;;;;4.80;4.40;;;5.50;99.90;;;;;;4982418;28;20443;-66
2021/12/08 11:29:22;;;;;;;4.77;4.20;;;5.50;99.90;;;;;;4984281;28;20431;-66
2021/12/08 11:32:01;;;;;;;4.93;4.47;;;5.40;99.90;;;;;;4980384;28;20485;-65
2021/12/08 11:34:31;;;;;;;4.47;4.03;;;5.40;99.90;;;;;;4979379;28;20446;-66
2021/12/08 11:37:03;;;;;;;8.80;6.90;;;5.50;99.90;;;;;;4979501;28;20804;-67
2021/12/08 11:39:31;;;;;;;5.20;4.70;;;5.70;99.90;;;;;;4978556;28;20427;-64
2021/12/08 11:42:06;;;;;;;5.90;5.40;;;5.70;99.90;;;;;;4990428;28;20458;-66
2021/12/08 11:44:36;;;;;;;4.63;4.23;;;5.80;99.90;;;;;;4972659;28;20810;-66
2021/12/08 11:47:11;;;;;;;5.20;3.90;;;5.90;99.90;;;;;;4991666;28;20473;-66
2021/12/08 11:49:52;;;;;;;5.63;4.60;;;6.00;99.90;;;;;;4977089;28;20825;-67
2021/12/08 11:52:23;;;;;;;6.50;4.90;;;6.10;99.90;;;;;;4976226;28;20463;-67
2021/12/08 11:54:48;;;;;;;5.00;4.60;;;5.90;99.90;;;;;;4976707;28;20438;-67
2021/12/08 11:57:18;;;;;;;5.60;5.10;;;5.90;99.90;;;;;;4979788;28;20431;-67
2021/12/08 11:59:47;;;;;;;9.60;5.70;;;6.00;99.90;;;;;;4976551;28;20559;-66
2021/12/08 12:02:14;;;;;;;5.63;5.10;;;6.10;99.90;;;;;;4979079;28;20785;-67
2021/12/08 12:04:41;;;;;;;6.73;6.17;;;5.80;99.90;;;;;;4974635;28;20465;-67
2021/12/08 12:07:13;;;;;;;6.40;5.80;;;5.70;99.90;;;;;;4974385;28;20482;-67
2021/12/08 12:09:39;;;;;;;7.30;6.60;;;5.70;99.90;;;;;;4976694;28;20462;-67
2021/12/08 12:12:06;;;;;;;6.03;5.53;;;5.80;99.90;;;;;;4984137;28;20469;-67
2021/12/08 12:14:31;;;;;;;8.33;5.70;;;5.90;99.90;;;;;;4973610;28;20430;-67
2021/12/08 12:16:57;;;;;;;6.20;5.60;;;5.90;99.90;;;;;;4990698;28;20429;-67
2021/12/08 12:19:25;;;;;;;8.07;6.70;;;5.80;99.90;;;;;;4979872;28;20191;-67
2021/12/08 12:22:13;;;;;;;8.13;6.47;;;5.90;99.90;;;;;;4982011;28;20192;-67
2021/12/08 12:24:50;;;;;;;7.93;6.33;;;5.80;99.90;;;;;;4978685;28;20978;-66
2021/12/08 12:27:24;;;;;;;7.73;6.97;;;5.70;99.90;;;;;;4982999;28;20974;-67
2021/12/08 12:30:14;;;;;;;7.10;6.50;;;5.70;99.90;;;;;;4975880;28;20501;-66
2021/12/08 12:32:50;;;;;;;6.80;5.77;;;5.80;99.90;;;;;;4989327;28;20434;-67
2021/12/08 12:35:29;;;;;;;6.90;6.20;;;5.80;99.90;;;;;;4984528;28;20962;-66
2021/12/08 12:38:07;;;;;;;8.60;7.67;;;5.70;99.90;;;;;;4980474;28;20435;-66
2021/12/08 12:40:36;;;;;;;8.53;7.10;;;5.70;99.90;;;;;;4977860;28;20461;-66
2021/12/08 12:43:03;;;;;;;8.40;7.60;;;5.70;99.90;;;;;;4974441;28;20984;-66
2021/12/08 12:45:43;;;;;;;18.53;8.40;;;5.70;99.90;;;;;;4977797;28;20422;-66
2021/12/08 12:48:20;;;;;;;8.83;8.00;;;5.70;99.90;;;;;;4985521;28;21031;-66
2021/12/08 12:51:13;;;;;;;9.00;7.30;;;5.80;99.90;;;;;;4987313;28;20821;-66
2021/12/08 12:53:46;;;;;;;7.27;6.53;;;5.90;99.90;;;;;;4981651;28;20446;-67
2021/12/08 12:56:37;;;;;;;10.60;8.17;;;6.10;99.90;;;;;;4984084;28;20439;-67
2021/12/08 12:59:15;;;;;;;8.90;7.33;;;6.10;99.90;;;;;;4974936;28;20439;-66
2021/12/08 13:01:47;;;;;;;7.83;6.97;;;6.20;99.90;;;;;;4985424;28;20970;-67
2021/12/08 13:04:25;;;;;;;8.00;7.10;;;6.20;99.90;;;;;;4973441;28;20473;-67
2021/12/08 13:07:01;;;;;;;9.07;8.17;;;6.20;99.90;;;;;;4981942;28;20431;-67
2021/12/08 13:09:34;;;;;;;7.77;7.00;;;6.20;99.90;;;;;;4975490;28;20435;-67
2021/12/08 13:12:15;;;;;;;7.73;6.93;;;6.20;99.90;;;;;;4987109;28;20670;-67
2021/12/08 13:14:43;;;;;;;8.37;7.57;;;6.10;99.90;;;;;;4971515;28;20434;-67
2021/12/08 13:17:15;;;;;;;10.03;8.90;;;6.10;99.90;;;;;;4979677;28;20426;-67
2021/12/08 13:19:44;;;;;;;8.67;7.87;;;6.20;99.90;;;;;;4977609;28;20431;-67
2021/12/08 13:22:49;;;;;;;7.87;7.00;;;6.20;99.90;;;;;;4983012;28;20824;-67
2021/12/08 13:25:26;;;;;;;13.00;7.30;;;6.20;99.90;;;;;;4975948;28;20441;-66
2021/12/08 13:28:06;;;;;;;10.93;7.90;;;6.30;99.90;;;;;;4975698;28;20466;-66
2021/12/08 13:30:32;;;;;;;9.70;7.53;;;6.20;99.90;;;;;;4986222;28;20512;-66
2021/12/08 13:33:07;;;;;;;8.00;7.20;;;6.20;99.90;;;;;;4987115;28;20967;-66
2021/12/08 13:35:35;;;;;;;9.90;8.87;;;6.20;99.90;;;;;;4977081;28;20211;-66
2021/12/08 13:38:01;;;;;;;9.70;8.50;;;6.20;99.90;;;;;;4988503;28;20555;-66
2021/12/08 13:40:49;;;;;;;14.83;11.30;;;6.20;99.90;;;;;;4983370;28;20459;-67
2021/12/08 13:43:42;;;;;;;9.50;8.50;;;6.20;99.90;;;;;;4976322;28;20525;-66
2021/12/08 13:46:10;;;;;;;9.00;8.00;;;6.10;99.90;;;;;;4984074;28;20928;-66
2021/12/08 13:49:28;;;;;;;10.37;7.83;;;6.10;99.90;;;;;;4991023;28;20828;-66
2021/12/08 13:52:06;;;;;;;8.13;7.43;;;5.90;99.90;;;;;;4951849;28;20494;-66
2021/12/08 13:54:40;;;;;;;8.90;7.63;;;6.20;99.90;;;;;;4976698;28;20438;-66
2021/12/08 13:57:26;;;;;;;9.67;8.40;;;6.20;99.90;;;;;;4987864;28;20430;-66
2021/12/08 13:59:58;;;;;;;10.00;8.93;;;6.10;99.90;;;;;;4977704;28;20430;-66
2021/12/08 14:02:28;;;;;;;11.20;9.60;;;6.10;99.90;;;;;;4985796;28;20467;-68